Time;durP1;ratioP1;P1;durP2;ratioP2;P2;SDS_P1;SDS_P2;PMS_P1;PMS_P2;Temp;Humidity;BMP_temperature;BMP_pressure;BME280_temperature;BME280_humidity;BME280_pressure;Samples;Min_cycle;Max_cycle;Signal;HPM_P1;HPM_P2
2022/12/18 00:01:32;;;;;;;108.82;46.08;;;;;;;;;;5090429;28;20050;-57
2022/12/18 00:03:59;;;;;;;106.65;43.67;;;;;;;;;;5090482;28;20101;-52
2022/12/18 00:06:28;;;;;;;121.55;46.85;;;-2.90;99.90;;;;;;5065268;28;20120;-56
2022/12/18 00:08:55;;;;;;;107.15;43.40;;;-2.10;99.90;;;;;;5070934;28;20043;-53
2022/12/18 00:11:23;;;;;;;109.50;40.92;;;;;;;;;;5084996;28;20083;-56
2022/12/18 00:13:49;;;;;;;104.78;42.33;;;-2.90;99.90;;;;;;5090110;28;20039;-55
2022/12/18 00:16:22;;;;;;;104.00;45.10;;;-3.00;99.90;;;;;;5096439;28;20044;-56
2022/12/18 00:18:49;;;;;;;100.03;40.85;;;;;;;;;;5080039;28;20136;-55
2022/12/18 00:21:15;;;;;;;101.90;41.58;;;-2.60;99.90;;;;;;5089333;28;20105;-52
2022/12/18 00:23:42;;;;;;;98.90;42.72;;;-2.60;99.90;;;;;;5087291;28;20040;-54
2022/12/18 00:26:15;;;;;;;108.68;42.03;;;;;;;;;;5090448;28;20031;-53
2022/12/18 00:28:41;;;;;;;112.45;41.30;;;;;;;;;;5066410;28;20047;-55
2022/12/18 00:31:10;;;;;;;101.32;42.90;;;-2.10;99.90;;;;;;5085566;28;20055;-57
2022/12/18 00:33:36;;;;;;;91.63;38.65;;;;;;;;;;5090199;28;20142;-56
2022/12/18 00:36:07;;;;;;;107.78;41.55;;;-2.10;99.90;;;;;;5089135;28;20064;-52
2022/12/18 00:38:34;;;;;;;112.95;44.30;;;;;;;;;;5082254;28;20527;-56
2022/12/18 00:41:00;;;;;;;111.38;40.75;;;-2.60;99.90;;;;;;5079627;28;20047;-54
2022/12/18 00:43:26;;;;;;;111.20;43.08;;;;;;;;;;5065085;28;20040;-55
2022/12/18 00:45:53;;;;;;;114.05;44.42;;;;;;;;;;5071761;28;20050;-51
2022/12/18 00:48:19;;;;;;;122.13;46.95;;;;;;;;;;5071771;28;20133;-51
2022/12/18 00:50:45;;;;;;;105.07;41.97;;;;;;;;;;5085228;28;20146;-54
2022/12/18 00:53:11;;;;;;;103.40;40.28;;;-2.50;99.90;;;;;;5095650;28;20038;-52
2022/12/18 00:55:38;;;;;;;100.90;40.80;;;;;;;;;;5096033;28;20494;-52
2022/12/18 00:58:03;;;;;;;90.85;40.13;;;-2.90;99.90;;;;;;5092075;28;20032;-53
2022/12/18 01:00:29;;;;;;;104.15;42.60;;;;;;;;;;5089127;28;20456;-56
2022/12/18 01:02:55;;;;;;;100.00;41.90;;;;;;;;;;5079217;28;20043;-55
2022/12/18 01:05:22;;;;;;;95.05;40.90;;;;;;;;;;5071086;28;20056;-54
2022/12/18 01:07:48;;;;;;;97.82;39.65;;;;;;;;;;5087549;28;20032;-54
2022/12/18 01:10:14;;;;;;;94.05;39.28;;;;;;;;;;5088034;28;20139;-55
2022/12/18 01:12:40;;;;;;;93.25;40.53;;;;;;;;;;5090790;28;20056;-54
2022/12/18 01:15:07;;;;;;;106.63;42.28;;;;;;;;;;5088913;28;20706;-55
2022/12/18 01:17:33;;;;;;;103.70;42.17;;;;;;;;;;5084581;28;20125;-52
2022/12/18 01:19:59;;;;;;;98.18;40.58;;;;;;;;;;5084828;28;20111;-50
2022/12/18 01:22:25;;;;;;;98.85;39.05;;;;;;;;;;5090608;28;20032;-51
2022/12/18 01:24:51;;;;;;;93.78;37.20;;;;;;;;;;5092892;28;20036;-56
2022/12/18 01:27:17;;;;;;;99.95;41.72;;;;;;;;;;5086451;28;20068;-54
2022/12/18 01:29:43;;;;;;;94.13;39.55;;;;;;;;;;5085576;28;20044;-56
2022/12/18 01:32:09;;;;;;;121.70;44.90;;;;;;;;;;5090435;28;20024;-55
2022/12/18 01:34:36;;;;;;;97.63;39.05;;;;;;;;;;5092823;28;20046;-55
2022/12/18 01:37:03;;;;;;;100.55;38.05;;;;;;;;;;5075010;28;20043;-56
2022/12/18 01:39:28;;;;;;;101.95;38.78;;;-3.10;99.90;;;;;;5087911;28;20041;-54
2022/12/18 01:42:03;;;;;;;98.15;38.75;;;;;;;;;;5071480;28;20446;-52
2022/12/18 01:44:48;;;;;;;89.50;36.10;;;;;;;;;;5092209;28;20043;-56
2022/12/18 01:47:20;;;;;;;86.10;34.65;;;;;;;;;;5089426;28;20119;-56
2022/12/18 01:49:46;;;;;;;75.32;34.25;;;-3.00;99.90;;;;;;5089624;28;20041;-56
2022/12/18 01:52:12;;;;;;;80.00;34.55;;;;;;;;;;5092499;28;20401;-55
2022/12/18 01:54:37;;;;;;;86.57;35.35;;;-3.10;99.90;;;;;;5083664;28;20059;-53
2022/12/18 01:57:04;;;;;;;90.22;34.80;;;;;;;;;;5087345;28;20060;-51
2022/12/18 01:59:30;;;;;;;84.75;34.42;;;;;;;;;;5089470;28;20094;-55
2022/12/18 02:01:57;;;;;;;83.20;34.78;;;;;;;;;;5091577;28;20036;-54
2022/12/18 02:04:24;;;;;;;90.70;35.38;;;;;;;;;;5086550;28;20036;-54
2022/12/18 02:07:20;;;;;;;90.25;34.70;;;-3.10;99.90;;;;;;5059168;28;20215;-55
2022/12/18 02:09:51;;;;;;;84.72;33.08;;;;;;;;;;5090638;28;20040;-55
2022/12/18 02:12:21;;;;;;;85.05;32.50;;;-3.10;99.90;;;;;;5090863;28;20028;-56
2022/12/18 02:14:47;;;;;;;100.70;37.78;;;;;;;;;;5084028;28;20041;-54
2022/12/18 02:17:32;;;;;;;87.72;35.72;;;;;;;;;;5085907;28;20129;-56
2022/12/18 02:20:14;;;;;;;98.63;34.90;;;;;;;;;;5088483;28;20039;-55
2022/12/18 02:22:45;;;;;;;87.22;36.00;;;;;;;;;;5069240;28;20097;-55
2022/12/18 02:25:45;;;;;;;92.82;34.63;;;-3.20;99.90;;;;;;5085237;28;20044;-53
2022/12/18 02:28:14;;;;;;;85.97;34.90;;;;;;;;;;5083043;28;20038;-55
2022/12/18 02:30:42;;;;;;;90.95;35.70;;;-3.50;99.90;;;;;;5091635;28;20052;-55
2022/12/18 02:33:09;;;;;;;93.03;35.78;;;;;;;;;;5088383;28;20039;-52
2022/12/18 02:35:35;;;;;;;96.88;37.35;;;;;;;;;;5079396;28;20055;-53
2022/12/18 02:38:02;;;;;;;93.00;33.03;;;;;;;;;;5085982;28;20133;-55
2022/12/18 02:40:28;;;;;;;93.05;36.80;;;;;;;;;;5092783;28;20107;-52
2022/12/18 02:42:55;;;;;;;91.43;32.65;;;;;;;;;;5093877;28;20036;-56
2022/12/18 02:45:21;;;;;;;95.07;35.67;;;;;;;;;;5085799;28;20057;-54
2022/12/18 02:47:49;;;;;;;96.50;34.17;;;;;;;;;;5086165;28;20082;-52
2022/12/18 02:50:33;;;;;;;94.22;37.42;;;;;;;;;;5097403;28;20043;-56
2022/12/18 02:53:24;;;;;;;90.90;34.80;;;-3.50;99.90;;;;;;5091062;28;20036;-56
2022/12/18 02:56:09;;;;;;;100.45;35.53;;;;;;;;;;5088780;28;20043;-54
2022/12/18 02:58:38;;;;;;;86.75;33.65;;;;;;;;;;5087489;28;20127;-56
2022/12/18 03:01:19;;;;;;;90.35;36.80;;;-4.00;99.90;;;;;;5090222;28;20040;-54
2022/12/18 03:04:03;;;;;;;89.70;36.65;;;;;;;;;;5089790;28;20035;-56
2022/12/18 03:06:46;;;;;;;85.03;35.03;;;-3.60;99.90;;;;;;5074918;28;20067;-53
2022/12/18 03:09:19;;;;;;;82.72;34.97;;;;;;;;;;5082645;28;20036;-53
2022/12/18 03:14:33;;;;;;;83.05;31.17;;;;;;;;;;5087370;28;20047;-56
2022/12/18 03:17:03;;;;;;;92.05;35.80;;;-3.40;99.90;;;;;;5069054;28;20039;-56
2022/12/18 03:19:32;;;;;;;89.63;34.50;;;;;;;;;;5081176;28;20031;-56
2022/12/18 03:21:58;;;;;;;87.57;32.60;;;;;;;;;;5087202;28;20040;-53
2022/12/18 03:24:26;;;;;;;88.82;32.00;;;;;;;;;;5090512;28;20123;-54
2022/12/18 03:26:57;;;;;;;83.10;35.10;;;-4.10;99.90;;;;;;5092874;28;20041;-53
2022/12/18 03:29:25;;;;;;;90.05;35.70;;;;;;;;;;5066789;28;20070;-53
2022/12/18 03:31:56;;;;;;;93.13;34.70;;;;;;;;;;5078246;28;20032;-56
2022/12/18 03:34:31;;;;;;;89.90;32.63;;;-4.10;99.90;;;;;;5085932;28;20090;-54
2022/12/18 03:36:57;;;;;;;94.10;35.35;;;;;;;;;;5071083;28;20508;-52
2022/12/18 03:39:24;;;;;;;85.78;33.17;;;-4.20;99.90;;;;;;5084673;28;20082;-52
2022/12/18 03:41:58;;;;;;;85.00;34.58;;;;;;;;;;5062865;28;20468;-55
2022/12/18 03:44:29;;;;;;;96.38;36.78;;;;;;;;;;5095315;28;20035;-55
2022/12/18 03:46:58;;;;;;;94.68;36.13;;;;;;;;;;5089908;28;20039;-52
2022/12/18 03:49:27;;;;;;;91.93;33.40;;;;;;;;;;5081236;28;20044;-54
2022/12/18 03:51:57;;;;;;;98.25;36.45;;;;;;;;;;5085034;28;20588;-53
2022/12/18 03:54:24;;;;;;;90.97;35.17;;;;;;;;;;5077022;28;20043;-54
2022/12/18 03:56:55;;;;;;;96.20;38.08;;;;;;;;;;5082240;28;20038;-56
2022/12/18 03:59:22;;;;;;;92.97;35.35;;;;;;;;;;5094523;28;20047;-53
2022/12/18 04:01:49;;;;;;;97.07;38.42;;;;;;;;;;5064827;28;20047;-56
2022/12/18 04:04:16;;;;;;;104.22;36.92;;;;;;;;;;5084970;28;20127;-56
2022/12/18 04:06:45;;;;;;;91.95;38.05;;;-4.00;99.90;;;;;;5078408;28;20044;-53
2022/12/18 04:09:11;;;;;;;95.05;37.40;;;;;;;;;;5103793;28;20039;-51
2022/12/18 04:11:37;;;;;;;100.18;39.22;;;;;;;;;;5100336;28;20134;-52
2022/12/18 04:14:04;;;;;;;97.45;37.85;;;;;;;;;;5079975;28;20066;-56
2022/12/18 04:16:30;;;;;;;89.05;35.00;;;;;;;;;;5098221;28;20097;-56
2022/12/18 04:18:56;;;;;;;93.30;36.22;;;;;;;;;;5073397;28;20088;-54
2022/12/18 04:21:22;;;;;;;103.68;38.00;;;;;;;;;;5091046;28;20066;-54
2022/12/18 04:23:48;;;;;;;92.28;39.35;;;-4.30;99.90;;;;;;5089824;28;20043;-56
2022/12/18 04:26:15;;;;;;;95.43;36.63;;;;;;;;;;5091743;28;20051;-55
2022/12/18 04:28:41;;;;;;;97.40;36.70;;;;;;;;;;5102020;28;20047;-53
2022/12/18 04:31:07;;;;;;;99.30;38.28;;;;;;;;;;5075542;28;20059;-52
2022/12/18 04:33:33;;;;;;;100.85;38.65;;;;;;;;;;5100526;28;20076;-52
2022/12/18 04:35:59;;;;;;;88.85;35.28;;;;;;;;;;5089393;28;20040;-51
2022/12/18 04:38:25;;;;;;;91.70;36.22;;;;;;;;;;5082219;28;20097;-56
2022/12/18 04:40:51;;;;;;;90.20;35.80;;;;;;;;;;5080169;28;20504;-54
2022/12/18 04:43:17;;;;;;;95.03;40.13;;;;;;;;;;5093979;28;20035;-55
2022/12/18 04:45:43;;;;;;;103.43;37.33;;;;;;;;;;5066298;28;20174;-56
2022/12/18 04:48:09;;;;;;;91.95;36.03;;;;;;;;;;5088231;28;20125;-55
2022/12/18 04:50:35;;;;;;;90.32;37.70;;;;;;;;;;5108335;28;20044;-56
2022/12/18 04:53:01;;;;;;;88.38;34.25;;;-4.90;99.90;;;;;;5073009;28;20064;-55
2022/12/18 04:55:27;;;;;;;93.43;34.50;;;-4.90;99.90;;;;;;5064367;28;20186;-56
2022/12/18 04:57:53;;;;;;;98.63;35.63;;;-5.00;99.90;;;;;;5079388;28;20040;-56
2022/12/18 05:00:19;;;;;;;82.45;35.30;;;;;;;;;;5088593;28;20042;-55
2022/12/18 05:02:45;;;;;;;89.18;35.35;;;;;;;;;;5087620;28;20058;-56
2022/12/18 05:05:11;;;;;;;82.40;31.35;;;;;;;;;;5077111;28;20063;-56
2022/12/18 05:07:37;;;;;;;84.63;33.42;;;-5.10;99.90;;;;;;5098053;28;20036;-56
2022/12/18 05:10:06;;;;;;;84.32;33.22;;;;;;;;;;5105201;28;20043;-56
2022/12/18 05:12:32;;;;;;;84.53;33.63;;;;;;;;;;5085868;28;20040;-53
2022/12/18 05:14:58;;;;;;;84.30;34.42;;;-5.20;99.90;;;;;;5091702;28;20093;-55
2022/12/18 05:17:24;;;;;;;76.43;33.70;;;;;;;;;;5094871;28;20040;-56
2022/12/18 05:19:50;;;;;;;86.65;32.25;;;;;;;;;;5091625;28;20038;-52
2022/12/18 05:22:16;;;;;;;79.30;32.95;;;;;;;;;;5089743;28;20032;-53
2022/12/18 05:24:42;;;;;;;75.93;33.33;;;;;;;;;;5092768;28;20040;-55
2022/12/18 05:27:08;;;;;;;76.32;32.92;;;;;;;;;;5089509;28;20036;-56
2022/12/18 05:29:34;;;;;;;77.18;34.30;;;;;;;;;;5078221;28;20044;-55
2022/12/18 05:32:00;;;;;;;82.22;33.35;;;;;;;;;;5092623;28;20115;-55
2022/12/18 05:34:26;;;;;;;84.10;37.83;;;-5.20;99.90;;;;;;5091741;28;20093;-53
2022/12/18 05:36:52;;;;;;;80.63;31.45;;;;;;;;;;5073770;28;20032;-54
2022/12/18 05:39:18;;;;;;;74.70;31.00;;;;;;;;;;5092506;28;20123;-55
2022/12/18 05:41:44;;;;;;;68.90;32.50;;;;;;;;;;5092264;28;20508;-53
2022/12/18 05:44:10;;;;;;;78.28;30.98;;;;;;;;;;5089442;28;20057;-54
2022/12/18 05:46:36;;;;;;;80.25;31.40;;;;;;;;;;5092519;28;20073;-56
2022/12/18 05:49:02;;;;;;;72.50;31.10;;;;;;;;;;5077206;28;20040;-54
2022/12/18 05:51:28;;;;;;;65.05;30.13;;;;;;;;;;5089028;28;20033;-55
2022/12/18 05:53:54;;;;;;;72.10;30.15;;;;;;;;;;5096191;28;20036;-53
2022/12/18 05:56:21;;;;;;;83.93;32.75;;;-5.30;99.90;;;;;;5097105;28;20067;-52
2022/12/18 05:58:47;;;;;;;78.68;29.60;;;-5.50;99.90;;;;;;5089370;28;20039;-55
2022/12/18 06:01:18;;;;;;;61.55;26.98;;;;;;;;;;5078399;28;20044;-53
2022/12/18 06:03:44;;;;;;;68.78;29.35;;;-5.50;99.90;;;;;;5091160;28;20067;-54
2022/12/18 06:06:15;;;;;;;70.88;30.05;;;-5.20;99.90;;;;;;5097615;28;20035;-55
2022/12/18 06:08:41;;;;;;;70.28;28.80;;;;;;;;;;5071725;28;20040;-54
2022/12/18 06:11:07;;;;;;;59.92;27.70;;;;;;;;;;5074035;28;20047;-52
2022/12/18 06:13:33;;;;;;;66.43;28.55;;;;;;;;;;5091743;28;20115;-53
2022/12/18 06:16:02;;;;;;;58.25;26.63;;;;;;;;;;5091999;28;20070;-55
2022/12/18 06:18:28;;;;;;;66.75;27.38;;;;;;;;;;5092461;28;20747;-52
2022/12/18 06:20:57;;;;;;;63.63;28.42;;;;;;;;;;5090533;28;20036;-55
2022/12/18 06:23:23;;;;;;;66.15;26.52;;;;;;;;;;5078689;28;20126;-52
2022/12/18 06:25:49;;;;;;;61.72;25.95;;;;;;;;;;5078361;28;20040;-54
2022/12/18 06:28:15;;;;;;;64.03;25.73;;;-5.70;99.90;;;;;;5058136;28;20505;-55
2022/12/18 06:30:44;;;;;;;68.57;27.67;;;-5.10;99.90;;;;;;5053599;28;20072;-55
2022/12/18 06:33:10;;;;;;;51.60;24.27;;;;;;;;;;5071741;28;20033;-56
2022/12/18 06:35:36;;;;;;;54.10;24.33;;;;;;;;;;5070752;28;20067;-53
2022/12/18 06:38:03;;;;;;;59.72;24.20;;;;;;;;;;5072036;28;20082;-53
2022/12/18 06:40:29;;;;;;;54.78;25.20;;;;;;;;;;5070525;28;20040;-53
2022/12/18 06:42:54;;;;;;;57.50;24.52;;;-5.80;99.90;;;;;;5070487;28;20040;-55
2022/12/18 06:45:20;;;;;;;52.03;25.70;;;-5.80;99.90;;;;;;5073887;28;20032;-54
2022/12/18 06:47:46;;;;;;;55.58;23.73;;;;;;;;;;5071770;28;20037;-52
2022/12/18 06:50:12;;;;;;;58.95;24.50;;;;;;;;;;5081070;28;20031;-55
2022/12/18 06:52:40;;;;;;;62.60;25.55;;;;;;;;;;5082777;28;20174;-54
2022/12/18 06:55:09;;;;;;;47.80;24.38;;;;;;;;;;5071275;28;20370;-56
2022/12/18 06:57:35;;;;;;;53.97;23.88;;;-6.00;99.90;;;;;;5055193;28;20049;-56
2022/12/18 07:00:02;;;;;;;51.70;24.52;;;;;;;;;;5072735;28;20119;-54
2022/12/18 07:02:28;;;;;;;55.38;23.58;;;;;;;;;;5090740;28;20051;-53
2022/12/18 07:04:54;;;;;;;52.70;24.15;;;-6.10;99.90;;;;;;5067120;28;20050;-56
2022/12/18 07:07:20;;;;;;;52.00;23.80;;;-6.10;99.90;;;;;;5091002;28;20048;-56
2022/12/18 07:09:46;;;;;;;58.55;24.70;;;;;;;;;;5101798;28;20039;-55
2022/12/18 07:12:12;;;;;;;47.75;21.40;;;;;;;;;;5077980;28;20067;-55
2022/12/18 07:14:39;;;;;;;50.97;22.83;;;;;;;;;;5090941;28;20127;-51
2022/12/18 07:17:05;;;;;;;50.22;23.85;;;;;;;;;;5079028;28;20052;-55
2022/12/18 07:19:31;;;;;;;49.13;23.95;;;-6.10;99.90;;;;;;5063581;28;20122;-55
2022/12/18 07:21:57;;;;;;;54.35;23.75;;;;;;;;;;5082793;28;20119;-52
2022/12/18 07:24:23;;;;;;;58.00;24.35;;;;;;;;;;5052183;28;20048;-53
2022/12/18 07:26:49;;;;;;;49.95;23.58;;;;;;;;;;5051440;28;20048;-56
2022/12/18 07:29:15;;;;;;;42.70;20.98;;;;;;;;;;5057981;28;20089;-51
2022/12/18 07:31:41;;;;;;;46.25;22.13;;;;;;;;;;5076200;28;20033;-55
2022/12/18 07:34:10;;;;;;;43.63;20.50;;;;;;;;;;5073662;28;20032;-55
2022/12/18 07:36:36;;;;;;;50.38;22.92;;;;;;;;;;5072303;28;20089;-51
2022/12/18 07:39:02;;;;;;;46.65;21.80;;;;;;;;;;5071020;28;20044;-56
2022/12/18 07:41:28;;;;;;;45.60;21.45;;;;;;;;;;5051904;28;20040;-53
2022/12/18 07:43:57;;;;;;;41.00;20.17;;;;;;;;;;5071686;28;20039;-54
2022/12/18 07:46:23;;;;;;;38.75;19.42;;;;;;;;;;5069459;28;20039;-56
2022/12/18 07:48:49;;;;;;;44.55;21.95;;;;;;;;;;5070423;28;20103;-55
2022/12/18 07:51:16;;;;;;;48.80;20.73;;;;;;;;;;5052467;28;20041;-55
2022/12/18 07:53:41;;;;;;;39.35;19.52;;;-5.80;99.90;;;;;;5071060;28;20105;-54
2022/12/18 07:56:09;;;;;;;42.30;21.10;;;;;;;;;;5069141;28;20111;-53
2022/12/18 07:58:35;;;;;;;40.15;19.25;;;;;;;;;;5071720;28;20044;-50
2022/12/18 08:01:10;;;;;;;41.78;21.30;;;;;;;;;;5052083;28;20051;-54
2022/12/18 08:03:36;;;;;;;42.38;22.48;;;;;;;;;;5070107;28;20043;-54
2022/12/18 08:06:04;;;;;;;45.53;22.25;;;;;;;;;;5052346;28;20047;-55
2022/12/18 08:08:30;;;;;;;43.42;24.70;;;;;;;;;;5051777;28;20047;-55
2022/12/18 08:10:56;;;;;;;46.33;22.08;;;;;;;;;;5070358;28;20044;-52
2022/12/18 08:13:23;;;;;;;44.58;24.77;;;;;;;;;;5073345;28;20039;-54
2022/12/18 08:16:00;;;;;;;40.70;23.75;;;-5.60;99.90;;;;;;5058579;28;20038;-53
2022/12/18 08:18:26;;;;;;;40.08;19.08;;;;;;;;;;5067987;28;20044;-55
2022/12/18 08:20:52;;;;;;;43.45;22.35;;;-5.60;99.90;;;;;;5071041;28;20066;-54
2022/12/18 08:23:18;;;;;;;39.88;21.38;;;;;;;;;;5070237;28;20139;-52
2022/12/18 08:25:44;;;;;;;40.38;20.77;;;;;;;;;;5071191;28;20039;-55
2022/12/18 08:28:10;;;;;;;36.10;18.85;;;;;;;;;;5051971;28;20040;-55
2022/12/18 08:30:37;;;;;;;42.00;20.40;;;;;;;;;;5071307;28;20128;-54
2022/12/18 08:33:03;;;;;;;39.03;20.00;;;;;;;;;;5078103;28;20032;-52
2022/12/18 08:35:29;;;;;;;43.20;20.88;;;;;;;;;;5062442;28;20040;-56
2022/12/18 08:37:55;;;;;;;39.47;19.35;;;;;;;;;;5087712;28;20032;-52
2022/12/18 08:40:21;;;;;;;41.08;19.35;;;-5.20;99.90;;;;;;5080252;28;20043;-54
2022/12/18 08:45:31;;;;;;;38.05;18.38;;;;;;;;;;5078829;28;20087;-53
2022/12/18 08:47:58;;;;;;;34.55;18.67;;;;;;;;;;5076787;28;20032;-55
2022/12/18 08:50:23;;;;;;;37.35;17.75;;;-4.80;99.90;;;;;;5082070;28;20044;-54
2022/12/18 08:52:49;;;;;;;35.38;18.98;;;;;;;;;;5089341;28;20051;-53
2022/12/18 08:55:16;;;;;;;39.47;20.77;;;;;;;;;;5071717;28;20149;-57
2022/12/18 08:57:42;;;;;;;39.00;19.08;;;;;;;;;;5087734;28;20044;-55
2022/12/18 09:00:08;;;;;;;32.63;18.55;;;;;;;;;;5089642;28;20121;-56
2022/12/18 09:02:34;;;;;;;36.65;18.10;;;;;;;;;;5095669;28;20059;-52
2022/12/18 09:05:00;;;;;;;36.15;18.25;;;;;;;;;;5089278;28;20394;-56
2022/12/18 09:07:26;;;;;;;34.33;17.98;;;;;;;;;;5089307;28;20054;-55
2022/12/18 09:09:52;;;;;;;38.17;18.90;;;-4.30;99.90;;;;;;5100398;28;20096;-55
2022/12/18 09:12:18;;;;;;;41.55;21.05;;;-4.00;99.90;;;;;;5093052;28;20489;-56
2022/12/18 09:14:44;;;;;;;37.00;21.10;;;;;;;;;;5095352;28;20083;-56
2022/12/18 09:17:10;;;;;;;36.97;19.92;;;;;;;;;;5089527;28;20037;-56
2022/12/18 09:19:36;;;;;;;37.45;18.58;;;;;;;;;;5056743;28;20036;-54
2022/12/18 09:22:02;;;;;;;34.33;18.20;;;;;;;;;;5057776;28;20048;-54
2022/12/18 09:24:28;;;;;;;34.97;19.65;;;;;;;;;;5069823;28;20071;-53
2022/12/18 09:26:54;;;;;;;38.72;20.50;;;;;;;;;;5062611;28;20048;-51
2022/12/18 09:29:21;;;;;;;36.97;21.25;;;;;;;;;;5078669;28;20494;-55
2022/12/18 09:31:47;;;;;;;35.88;20.40;;;;;;;;;;5085822;28;20067;-56
2022/12/18 09:34:13;;;;;;;38.33;19.15;;;-3.10;99.90;;;;;;5080622;28;20044;-56
2022/12/18 09:36:39;;;;;;;32.50;18.33;;;;;;;;;;5086653;28;20028;-53
2022/12/18 09:39:05;;;;;;;31.38;16.65;;;;;;;;;;5081998;28;20142;-53
2022/12/18 09:41:31;;;;;;;28.63;16.20;;;;;;;;;;5061284;28;20036;-55
2022/12/18 09:44:01;;;;;;;36.95;18.88;;;;;;;;;;5076838;28;20048;-56
2022/12/18 09:46:29;;;;;;;34.78;17.27;;;;;;;;;;5069999;28;20070;-53
2022/12/18 09:48:58;;;;;;;30.65;18.08;;;;;;;;;;5074003;28;20035;-55
2022/12/18 09:51:29;;;;;;;32.03;17.23;;;;;;;;;;5076418;28;20044;-57
2022/12/18 09:54:03;;;;;;;31.35;16.30;;;-2.90;99.90;;;;;;5055658;28;20119;-53
2022/12/18 09:56:30;;;;;;;32.78;19.33;;;;;;;;;;5072941;28;20462;-52
2022/12/18 09:58:58;;;;;;;30.92;16.83;;;;;;;;;;5072001;28;20035;-56
2022/12/18 10:01:27;;;;;;;30.15;16.95;;;;;;;;;;5071482;28;20352;-56
2022/12/18 10:03:54;;;;;;;26.45;14.00;;;;;;;;;;5071105;28;20036;-53
2022/12/18 10:06:23;;;;;;;26.17;14.57;;;;;;;;;;5070250;28;20067;-52
2022/12/18 10:08:49;;;;;;;28.98;16.20;;;;;;;;;;5069469;28;20344;-56
2022/12/18 10:11:33;;;;;;;29.67;14.55;;;;;;;;;;5051282;28;20158;-56
2022/12/18 10:14:11;;;;;;;27.63;15.43;;;;;;;;;;5068612;28;20089;-53
2022/12/18 10:16:52;;;;;;;24.05;14.88;;;;;;;;;;5070589;28;20084;-57
2022/12/18 10:19:49;;;;;;;24.45;14.80;;;-2.10;99.90;;;;;;5068671;28;20068;-55
2022/12/18 10:22:59;;;;;;;29.65;16.08;;;-2.30;99.90;;;;;;5071616;28;20422;-55
2022/12/18 10:25:31;;;;;;;26.95;12.85;;;;;;;;;;5021225;28;20595;-54
2022/12/18 10:28:07;;;;;;;27.65;13.75;;;;;;;;;;5070143;28;20087;-56
2022/12/18 10:30:33;;;;;;;24.30;14.48;;;-2.10;99.90;;;;;;5071634;28;20036;-56
2022/12/18 10:33:05;;;;;;;23.27;13.48;;;;;;;;;;5072821;28;20402;-55
2022/12/18 10:35:31;;;;;;;22.55;15.25;;;;;;;;;;5056766;28;20032;-52
2022/12/18 10:38:00;;;;;;;22.55;12.38;;;;;;;;;;5070524;28;20040;-54
2022/12/18 10:40:26;;;;;;;19.38;11.63;;;;;;;;;;5078927;28;20040;-54
2022/12/18 10:43:18;;;;;;;19.35;11.77;;;;;;;;;;5082999;28;20043;-55
2022/12/18 10:45:57;;;;;;;20.80;11.32;;;;;;;;;;5041774;28;20142;-55
2022/12/18 10:48:27;;;;;;;20.42;11.80;;;;;;;;;;5072486;28;20040;-56
2022/12/18 10:50:53;;;;;;;21.05;13.57;;;-1.70;99.90;;;;;;5072562;28;20032;-55
2022/12/18 10:53:25;;;;;;;21.30;12.02;;;-1.70;99.90;;;;;;5070345;28;20121;-55
2022/12/18 10:55:54;;;;;;;19.77;10.85;;;;;;;;;;5072186;28;20394;-55
2022/12/18 10:58:25;;;;;;;17.55;9.70;;;;;;;;;;5051657;28;20120;-53
2022/12/18 11:01:09;;;;;;;18.17;11.18;;;;;;;;;;5074664;28;20090;-53
2022/12/18 11:03:40;;;;;;;16.10;9.73;;;;;;;;;;5070150;28;20040;-54
2022/12/18 11:06:17;;;;;;;17.00;8.75;;;;;;;;;;5072160;28;20047;-55
2022/12/18 11:08:44;;;;;;;15.98;8.35;;;;;;;;;;5055514;28;20040;-56
2022/12/18 11:11:29;;;;;;;15.13;9.43;;;;;;;;;;5073648;28;20041;-53
2022/12/18 11:14:05;;;;;;;15.35;8.48;;;;;;;;;;5070826;28;20028;-54
2022/12/18 11:16:35;;;;;;;14.07;7.78;;;;;;;;;;5073683;28;20048;-55
2022/12/18 11:19:20;;;;;;;14.55;7.03;;;-1.20;99.90;;;;;;5071385;28;20032;-54
2022/12/18 11:21:47;;;;;;;14.27;7.47;;;;;;;;;;5079529;28;20441;-54
2022/12/18 11:24:21;;;;;;;14.38;8.48;;;;;;;;;;5078500;28;20401;-54
2022/12/18 11:26:47;;;;;;;14.95;7.72;;;;;;;;;;5079276;28;20036;-54
2022/12/18 11:29:23;;;;;;;15.30;8.15;;;;;;;;;;5070828;28;20114;-53
2022/12/18 11:31:49;;;;;;;17.70;9.32;;;;;;;;;;5055950;28;20043;-52
2022/12/18 11:34:35;;;;;;;16.52;9.20;;;;;;;;;;5054100;28;20041;-56
2022/12/18 11:37:03;;;;;;;14.52;8.13;;;;;;;;;;5052481;28;20036;-56
2022/12/18 11:39:37;;;;;;;14.85;8.13;;;;;;;;;;5071620;28;20079;-55
2022/12/18 11:42:09;;;;;;;13.93;8.07;;;-0.40;99.90;;;;;;5070379;28;20040;-54
2022/12/18 11:44:56;;;;;;;13.80;8.00;;;;;;;;;;5068084;28;20135;-54
2022/12/18 11:47:22;;;;;;;13.40;7.53;;;;;;;;;;5069407;28;20044;-54
2022/12/18 11:49:51;;;;;;;14.65;7.95;;;;;;;;;;5070724;28;20036;-53
2022/12/18 11:52:19;;;;;;;14.45;7.50;;;;;;;;;;5068436;28;20032;-53
2022/12/18 11:54:48;;;;;;;12.65;6.90;;;;;;;;;;5070227;28;20036;-54
2022/12/18 11:57:37;;;;;;;13.55;7.53;;;;;;;;;;5069348;28;20040;-56
2022/12/18 12:00:30;;;;;;;13.55;6.88;;;-0.20;99.90;;;;;;5072859;28;20056;-56
2022/12/18 12:03:15;;;;;;;13.50;7.93;;;;;;;;;;5071180;28;20520;-56
2022/12/18 12:06:01;;;;;;;21.67;7.55;;;;;;;;;;5068094;28;20119;-53
2022/12/18 12:08:27;;;;;;;13.20;7.28;;;-0.20;99.90;;;;;;5069264;28;20068;-55
2022/12/18 12:11:13;;;;;;;14.57;8.02;;;0.30;99.90;;;;;;5049424;28;20072;-54
2022/12/18 12:13:39;;;;;;;13.88;8.60;;;;;;;;;;5051694;28;20064;-57
2022/12/18 12:16:18;;;;;;;14.77;9.10;;;;;;;;;;5071497;28;20036;-56
2022/12/18 12:19:03;;;;;;;14.52;8.95;;;;;;;;;;5073635;28;20036;-56
2022/12/18 12:21:36;;;;;;;11.75;7.50;;;;;;;;;;5072406;28;20040;-54
2022/12/18 12:24:20;;;;;;;13.40;8.32;;;0.10;99.90;;;;;;5072812;28;20041;-56
2022/12/18 12:27:14;;;;;;;14.93;7.75;;;0.20;99.90;;;;;;5070404;28;20040;-57
2022/12/18 12:29:57;;;;;;;13.73;8.02;;;-0.10;99.90;;;;;;5061659;28;20403;-55
2022/12/18 12:33:01;;;;;;;14.27;8.90;;;0.30;99.90;;;;;;5076335;28;20136;-55
2022/12/18 12:35:29;;;;;;;12.82;7.55;;;0.20;99.90;;;;;;5079198;28;20040;-56
2022/12/18 12:37:58;;;;;;;12.05;7.10;;;;;;;;;;5078214;28;20028;-56
2022/12/18 12:40:26;;;;;;;13.63;7.40;;;;;;;;;;5083136;28;20402;-56
2022/12/18 12:43:12;;;;;;;12.70;7.07;;;0.20;99.90;;;;;;5065444;28;20563;-56
2022/12/18 12:45:41;;;;;;;14.10;7.50;;;;;;;;;;5086038;28;20118;-56
2022/12/18 12:48:11;;;;;;;12.07;6.78;;;;;;;;;;5081308;28;20135;-56
2022/12/18 12:50:37;;;;;;;13.63;7.38;;;;;;;;;;5086540;28;20535;-54
2022/12/18 12:53:07;;;;;;;10.95;7.05;;;;;;;;;;5093587;28;20047;-54
2022/12/18 12:55:34;;;;;;;12.65;6.57;;;0.30;99.90;;;;;;5103241;28;20036;-57
2022/12/18 12:58:23;;;;;;;13.73;7.15;;;;;;;;;;5106823;28;20082;-55
2022/12/18 13:01:08;;;;;;;12.82;7.97;;;0.30;99.90;;;;;;5093070;28;20040;-56
2022/12/18 13:03:49;;;;;;;12.98;7.57;;;;;;;;;;5075132;28;20245;-56
2022/12/18 13:06:27;;;;;;;12.43;7.00;;;;;;;;;;5093709;28;20036;-56
2022/12/18 13:08:56;;;;;;;14.10;7.45;;;0.50;99.90;;;;;;5072060;28;20413;-56
2022/12/18 13:14:29;;;;;;;12.80;7.13;;;;;;;;;;5095132;28;20048;-55
2022/12/18 13:17:15;;;;;;;11.38;6.47;;;;;;;;;;5074925;28;20057;-56
2022/12/18 13:19:41;;;;;;;12.05;7.28;;;0.20;99.90;;;;;;5053284;28;20052;-57
2022/12/18 13:22:40;;;;;;;11.68;7.28;;;-0.30;99.90;;;;;;5092971;28;20432;-58
2022/12/18 13:25:28;;;;;;;13.18;7.50;;;0.40;99.90;;;;;;5081804;28;20051;-56
2022/12/18 13:28:02;;;;;;;11.98;6.63;;;0.60;99.90;;;;;;5092158;28;20051;-54
2022/12/18 13:30:33;;;;;;;12.57;7.47;;;0.10;99.90;;;;;;5092298;28;20044;-52
2022/12/18 13:33:15;;;;;;;15.88;7.72;;;;;;;;;;5085641;28;20090;-56
2022/12/18 13:35:51;;;;;;;11.60;6.20;;;;;;;;;;5074602;28;20437;-55
2022/12/18 13:38:23;;;;;;;11.32;6.15;;;;;;;;;;5092211;28;20048;-54
2022/12/18 13:40:49;;;;;;;12.43;6.30;;;;;;;;;;5092564;28;20538;-56
2022/12/18 13:43:27;;;;;;;12.10;7.15;;;;;;;;;;5074464;28;20058;-57
2022/12/18 13:46:18;;;;;;;12.10;6.57;;;0.30;99.90;;;;;;5086694;28;20170;-56
2022/12/18 13:48:49;;;;;;;10.23;5.85;;;;;;;;;;5083459;28;20052;-54
2022/12/18 13:51:18;;;;;;;10.25;6.07;;;;;;;;;;5071960;28;20506;-54
2022/12/18 13:53:46;;;;;;;12.65;5.85;;;;;;;;;;5075155;28;20036;-56
2022/12/18 13:56:23;;;;;;;14.10;7.70;;;0.10;99.90;;;;;;5074620;28;20040;-56
2022/12/18 13:59:07;;;;;;;12.23;6.28;;;;;;;;;;5073131;28;20051;-54
2022/12/18 14:01:33;;;;;;;10.75;5.82;;;0.30;99.90;;;;;;5073545;28;20047;-57
2022/12/18 14:04:28;;;;;;;10.90;5.60;;;;;;;;;;5076652;28;20032;-53
2022/12/18 14:07:03;;;;;;;10.38;6.40;;;;;;;;;;5054017;28;20101;-57
2022/12/18 14:09:31;;;;;;;11.02;6.18;;;;;;;;;;5071797;28;20124;-55
2022/12/18 14:14:48;;;;;;;10.77;6.47;;;0.00;99.90;;;;;;5069986;28;20059;-56
2022/12/18 14:17:15;;;;;;;12.27;5.78;;;0.10;99.90;;;;;;5071569;28;20422;-57